sensor_id;sensor_type;location;lat;lon;timestamp;temperature;humidity
11505;DHT22;5809;53.262;10.408;2023-06-14T00:00:36;14.90;99.90
11505;DHT22;5809;53.262;10.408;2023-06-14T00:03:04;14.90;99.90
11505;DHT22;5809;53.262;10.408;2023-06-14T00:05:31;14.80;99.90
11505;DHT22;5809;53.262;10.408;2023-06-14T00:08:04;14.80;99.90
11505;DHT22;5809;53.262;10.408;2023-06-14T00:10:33;14.80;1.00
11505;DHT22;5809;53.262;10.408;2023-06-14T00:13:02;14.80;1.00
11505;DHT22;5809;53.262;10.408;2023-06-14T00:15:30;14.70;1.00
11505;DHT22;5809;53.262;10.408;2023-06-14T00:17:57;14.70;1.00
11505;DHT22;5809;53.262;10.408;2023-06-14T00:20:26;14.60;1.00
11505;DHT22;5809;53.262;10.408;2023-06-14T00:22:53;14.60;1.00
11505;DHT22;5809;53.262;10.408;2023-06-14T00:25:21;14.60;1.00
11505;DHT22;5809;53.262;10.408;2023-06-14T00:27:48;14.50;54.10
11505;DHT22;5809;53.262;10.408;2023-06-14T00:30:17;14.50;99.90
11505;DHT22;5809;53.262;10.408;2023-06-14T00:32:44;14.40;99.90
11505;DHT22;5809;53.262;10.408;2023-06-14T00:35:11;14.40;99.90
11505;DHT22;5809;53.262;10.408;2023-06-14T00:37:38;14.40;99.90
11505;DHT22;5809;53.262;10.408;2023-06-14T00:40:06;14.30;99.90
11505;DHT22;5809;53.262;10.408;2023-06-14T00:42:33;14.30;1.00
11505;DHT22;5809;53.262;10.408;2023-06-14T00:45:00;14.30;1.00
11505;DHT22;5809;53.262;10.408;2023-06-14T00:47:29;14.20;1.00
11505;DHT22;5809;53.262;10.408;2023-06-14T00:49:56;14.20;1.00
11505;DHT22;5809;53.262;10.408;2023-06-14T00:52:24;14.20;1.00
11505;DHT22;5809;53.262;10.408;2023-06-14T00:54:50;14.10;1.00
11505;DHT22;5809;53.262;10.408;2023-06-14T00:57:17;14.10;1.00
11505;DHT22;5809;53.262;10.408;2023-06-14T00:59:48;14.10;94.40
11505;DHT22;5809;53.262;10.408;2023-06-14T01:02:17;14.10;99.90
11505;DHT22;5809;53.262;10.408;2023-06-14T01:04:47;14.10;99.90
11505;DHT22;5809;53.262;10.408;2023-06-14T01:07:23;14.00;99.90
11505;DHT22;5809;53.262;10.408;2023-06-14T01:10:03;14.00;99.90
11505;DHT22;5809;53.262;10.408;2023-06-14T01:12:39;14.00;99.90
11505;DHT22;5809;53.262;10.408;2023-06-14T01:15:09;13.90;1.00
11505;DHT22;5809;53.262;10.408;2023-06-14T01:17:37;13.80;1.00
11505;DHT22;5809;53.262;10.408;2023-06-14T01:20:12;13.80;1.00
11505;DHT22;5809;53.262;10.408;2023-06-14T01:22:50;13.80;1.00
11505;DHT22;5809;53.262;10.408;2023-06-14T01:25:17;13.80;1.00
11505;DHT22;5809;53.262;10.408;2023-06-14T01:27:47;13.80;1.00
11505;DHT22;5809;53.262;10.408;2023-06-14T01:30:15;13.80;1.00
11505;DHT22;5809;53.262;10.408;2023-06-14T01:32:42;13.80;1.00
11505;DHT22;5809;53.262;10.408;2023-06-14T01:35:10;13.80;1.00
11505;DHT22;5809;53.262;10.408;2023-06-14T01:37:38;13.70;1.00
11505;DHT22;5809;53.262;10.408;2023-06-14T01:40:07;13.70;64.20
11505;DHT22;5809;53.262;10.408;2023-06-14T01:42:37;13.70;99.90
11505;DHT22;5809;53.262;10.408;2023-06-14T01:45:06;13.60;99.90
11505;DHT22;5809;53.262;10.408;2023-06-14T01:47:34;13.60;99.90
11505;DHT22;5809;53.262;10.408;2023-06-14T01:50:02;13.60;99.90
11505;DHT22;5809;53.262;10.408;2023-06-14T01:52:29;13.50;99.90
11505;DHT22;5809;53.262;10.408;2023-06-14T01:54:56;13.50;1.00
11505;DHT22;5809;53.262;10.408;2023-06-14T01:57:25;13.40;1.00
11505;DHT22;5809;53.262;10.408;2023-06-14T01:59:52;13.40;1.00
11505;DHT22;5809;53.262;10.408;2023-06-14T02:02:20;13.40;1.00
11505;DHT22;5809;53.262;10.408;2023-06-14T02:04:46;13.40;1.00
11505;DHT22;5809;53.262;10.408;2023-06-14T02:07:14;13.40;1.00
11505;DHT22;5809;53.262;10.408;2023-06-14T02:09:41;13.70;1.00
11505;DHT22;5809;53.262;10.408;2023-06-14T02:12:08;13.30;1.00
11505;DHT22;5809;53.262;10.408;2023-06-14T02:14:37;13.20;1.00
11505;DHT22;5809;53.262;10.408;2023-06-14T02:17:05;13.20;1.00
11505;DHT22;5809;53.262;10.408;2023-06-14T02:19:32;13.20;1.00
11505;DHT22;5809;53.262;10.408;2023-06-14T02:21:59;13.20;1.00
11505;DHT22;5809;53.262;10.408;2023-06-14T02:24:26;13.20;1.00
11505;DHT22;5809;53.262;10.408;2023-06-14T02:26:53;13.10;1.00
11505;DHT22;5809;53.262;10.408;2023-06-14T02:29:20;13.10;1.00
11505;DHT22;5809;53.262;10.408;2023-06-14T02:31:49;13.10;1.00
11505;DHT22;5809;53.262;10.408;2023-06-14T02:34:16;13.00;1.00
11505;DHT22;5809;53.262;10.408;2023-06-14T02:36:43;13.10;1.00
11505;DHT22;5809;53.262;10.408;2023-06-14T02:39:10;13.10;1.00
11505;DHT22;5809;53.262;10.408;2023-06-14T02:41:38;13.00;12.40
11505;DHT22;5809;53.262;10.408;2023-06-14T02:44:05;13.00;45.00
11505;DHT22;5809;53.262;10.408;2023-06-14T02:46:32;13.00;62.80
11505;DHT22;5809;53.262;10.408;2023-06-14T02:49:00;13.00;69.20
11505;DHT22;5809;53.262;10.408;2023-06-14T02:51:27;13.00;89.90
11505;DHT22;5809;53.262;10.408;2023-06-14T02:53:54;13.00;91.40
11505;DHT22;5809;53.262;10.408;2023-06-14T02:56:21;12.90;97.90
11505;DHT22;5809;53.262;10.408;2023-06-14T02:58:48;12.90;99.90
11505;DHT22;5809;53.262;10.408;2023-06-14T03:01:16;12.90;99.90
11505;DHT22;5809;53.262;10.408;2023-06-14T03:03:43;12.90;99.90
11505;DHT22;5809;53.262;10.408;2023-06-14T03:06:12;12.90;99.90
11505;DHT22;5809;53.262;10.408;2023-06-14T03:08:39;12.90;99.90
11505;DHT22;5809;53.262;10.408;2023-06-14T03:11:07;12.80;99.90
11505;DHT22;5809;53.262;10.408;2023-06-14T03:13:34;13.00;99.90
11505;DHT22;5809;53.262;10.408;2023-06-14T03:16:01;12.90;99.90
11505;DHT22;5809;53.262;10.408;2023-06-14T03:18:29;12.90;99.90
11505;DHT22;5809;53.262;10.408;2023-06-14T03:21:00;12.80;99.90
11505;DHT22;5809;53.262;10.408;2023-06-14T03:23:29;12.80;99.90
11505;DHT22;5809;53.262;10.408;2023-06-14T03:25:56;12.80;99.90
11505;DHT22;5809;53.262;10.408;2023-06-14T03:28:23;12.80;99.90
11505;DHT22;5809;53.262;10.408;2023-06-14T03:33:17;12.90;99.90
11505;DHT22;5809;53.262;10.408;2023-06-14T03:35:44;12.90;99.90
11505;DHT22;5809;53.262;10.408;2023-06-14T03:38:11;12.90;99.90
11505;DHT22;5809;53.262;10.408;2023-06-14T03:40:40;12.80;99.90
11505;DHT22;5809;53.262;10.408;2023-06-14T03:43:06;12.90;99.90
11505;DHT22;5809;53.262;10.408;2023-06-14T03:45:33;12.90;99.90
11505;DHT22;5809;53.262;10.408;2023-06-14T03:48:00;12.90;99.90
11505;DHT22;5809;53.262;10.408;2023-06-14T03:50:28;12.90;99.90
11505;DHT22;5809;53.262;10.408;2023-06-14T03:52:55;13.00;99.90
11505;DHT22;5809;53.262;10.408;2023-06-14T03:55:22;13.00;99.90
11505;DHT22;5809;53.262;10.408;2023-06-14T03:57:52;13.00;99.90
11505;DHT22;5809;53.262;10.408;2023-06-14T04:00:19;13.10;99.90
11505;DHT22;5809;53.262;10.408;2023-06-14T04:02:46;13.10;99.90
11505;DHT22;5809;53.262;10.408;2023-06-14T04:05:13;13.10;99.90
11505;DHT22;5809;53.262;10.408;2023-06-14T04:07:42;13.10;99.90
11505;DHT22;5809;53.262;10.408;2023-06-14T04:10:11;13.20;99.90
11505;DHT22;5809;53.262;10.408;2023-06-14T04:12:38;13.20;99.90
11505;DHT22;5809;53.262;10.408;2023-06-14T04:15:08;13.20;99.90
11505;DHT22;5809;53.262;10.408;2023-06-14T04:17:36;13.30;99.90
11505;DHT22;5809;53.262;10.408;2023-06-14T04:22:33;13.40;99.90
11505;DHT22;5809;53.262;10.408;2023-06-14T04:25:02;13.40;99.90
11505;DHT22;5809;53.262;10.408;2023-06-14T04:27:31;13.40;99.90
11505;DHT22;5809;53.262;10.408;2023-06-14T04:30:02;13.40;99.90
11505;DHT22;5809;53.262;10.408;2023-06-14T04:32:30;13.50;99.90
11505;DHT22;5809;53.262;10.408;2023-06-14T04:34:59;13.50;99.90
11505;DHT22;5809;53.262;10.408;2023-06-14T04:37:27;13.60;99.90
11505;DHT22;5809;53.262;10.408;2023-06-14T04:39:55;13.70;99.90
11505;DHT22;5809;53.262;10.408;2023-06-14T04:42:22;13.70;99.90
11505;DHT22;5809;53.262;10.408;2023-06-14T04:44:51;13.80;99.90
11505;DHT22;5809;53.262;10.408;2023-06-14T04:47:21;13.80;99.90
11505;DHT22;5809;53.262;10.408;2023-06-14T04:49:51;13.80;99.90
11505;DHT22;5809;53.262;10.408;2023-06-14T04:52:19;13.70;99.90
11505;DHT22;5809;53.262;10.408;2023-06-14T04:54:46;13.70;99.90
11505;DHT22;5809;53.262;10.408;2023-06-14T04:57:14;13.80;99.90
11505;DHT22;5809;53.262;10.408;2023-06-14T04:59:42;13.90;84.00
11505;DHT22;5809;53.262;10.408;2023-06-14T05:02:09;13.90;94.50
11505;DHT22;5809;53.262;10.408;2023-06-14T05:04:37;14.00;48.10
11505;DHT22;5809;53.262;10.408;2023-06-14T05:07:08;14.00;1.00
11505;DHT22;5809;53.262;10.408;2023-06-14T05:09:35;14.20;1.00
11505;DHT22;5809;53.262;10.408;2023-06-14T05:12:02;14.40;1.00
11505;DHT22;5809;53.262;10.408;2023-06-14T05:14:29;14.60;99.90
11505;DHT22;5809;53.262;10.408;2023-06-14T05:16:56;14.80;92.10
11505;DHT22;5809;53.262;10.408;2023-06-14T05:19:23;14.80;99.90
11505;DHT22;5809;53.262;10.408;2023-06-14T05:21:50;14.90;1.00
11505;DHT22;5809;53.262;10.408;2023-06-14T05:24:18;15.00;1.00
11505;DHT22;5809;53.262;10.408;2023-06-14T05:26:45;15.60;1.00
11505;DHT22;5809;53.262;10.408;2023-06-14T05:29:12;15.50;99.90
11505;DHT22;5809;53.262;10.408;2023-06-14T05:31:39;15.70;99.90
11505;DHT22;5809;53.262;10.408;2023-06-14T05:34:06;15.90;1.00
11505;DHT22;5809;53.262;10.408;2023-06-14T05:36:33;16.10;99.90
11505;DHT22;5809;53.262;10.408;2023-06-14T05:39:02;16.30;99.90
11505;DHT22;5809;53.262;10.408;2023-06-14T05:41:31;16.60;1.00
11505;DHT22;5809;53.262;10.408;2023-06-14T05:43:58;17.10;99.90
11505;DHT22;5809;53.262;10.408;2023-06-14T05:46:26;17.10;1.00
11505;DHT22;5809;53.262;10.408;2023-06-14T05:48:54;17.30;99.90
11505;DHT22;5809;53.262;10.408;2023-06-14T05:51:22;17.60;1.00
11505;DHT22;5809;53.262;10.408;2023-06-14T05:53:50;17.70;1.00
11505;DHT22;5809;53.262;10.408;2023-06-14T05:56:18;18.00;99.90
11505;DHT22;5809;53.262;10.408;2023-06-14T05:58:46;17.90;99.90
11505;DHT22;5809;53.262;10.408;2023-06-14T06:01:14;18.10;99.90
11505;DHT22;5809;53.262;10.408;2023-06-14T06:03:42;18.10;99.90
11505;DHT22;5809;53.262;10.408;2023-06-14T06:06:11;18.30;99.90
11505;DHT22;5809;53.262;10.408;2023-06-14T06:08:38;18.40;1.00
11505;DHT22;5809;53.262;10.408;2023-06-14T06:11:06;18.20;1.00
11505;DHT22;5809;53.262;10.408;2023-06-14T06:13:33;18.50;1.00
11505;DHT22;5809;53.262;10.408;2023-06-14T06:16:02;18.70;1.00
11505;DHT22;5809;53.262;10.408;2023-06-14T06:18:29;19.00;1.00
11505;DHT22;5809;53.262;10.408;2023-06-14T06:20:55;18.90;99.90
11505;DHT22;5809;53.262;10.408;2023-06-14T06:23:22;18.80;1.00
11505;DHT22;5809;53.262;10.408;2023-06-14T06:25:49;18.90;1.00
11505;DHT22;5809;53.262;10.408;2023-06-14T06:28:17;19.20;99.90
11505;DHT22;5809;53.262;10.408;2023-06-14T06:30:43;19.50;99.90
11505;DHT22;5809;53.262;10.408;2023-06-14T06:33:12;19.80;42.20
11505;DHT22;5809;53.262;10.408;2023-06-14T06:35:39;20.00;1.00
11505;DHT22;5809;53.262;10.408;2023-06-14T06:38:06;20.30;1.00
11505;DHT22;5809;53.262;10.408;2023-06-14T06:40:34;20.40;99.90
11505;DHT22;5809;53.262;10.408;2023-06-14T06:43:01;19.80;1.00
11505;DHT22;5809;53.262;10.408;2023-06-14T06:45:28;20.20;1.00
11505;DHT22;5809;53.262;10.408;2023-06-14T06:47:56;20.50;1.00
11505;DHT22;5809;53.262;10.408;2023-06-14T06:50:24;20.90;99.90
11505;DHT22;5809;53.262;10.408;2023-06-14T06:52:51;20.70;99.90
11505;DHT22;5809;53.262;10.408;2023-06-14T06:55:19;20.90;99.90
11505;DHT22;5809;53.262;10.408;2023-06-14T06:57:45;21.10;99.90
11505;DHT22;5809;53.262;10.408;2023-06-14T07:00:13;21.50;81.70
11505;DHT22;5809;53.262;10.408;2023-06-14T07:02:40;21.60;1.00
11505;DHT22;5809;53.262;10.408;2023-06-14T07:05:08;21.30;1.00
11505;DHT22;5809;53.262;10.408;2023-06-14T07:07:36;21.50;1.00
11505;DHT22;5809;53.262;10.408;2023-06-14T07:10:04;21.60;1.00
11505;DHT22;5809;53.262;10.408;2023-06-14T07:12:31;21.70;1.00
11505;DHT22;5809;53.262;10.408;2023-06-14T07:14:59;22.10;1.00
11505;DHT22;5809;53.262;10.408;2023-06-14T07:17:26;22.10;99.90
11505;DHT22;5809;53.262;10.408;2023-06-14T07:19:53;21.90;1.00
11505;DHT22;5809;53.262;10.408;2023-06-14T07:22:20;22.10;1.00
11505;DHT22;5809;53.262;10.408;2023-06-14T07:24:48;22.90;99.90
11505;DHT22;5809;53.262;10.408;2023-06-14T07:27:15;23.30;95.00
11505;DHT22;5809;53.262;10.408;2023-06-14T07:29:42;23.30;1.00
11505;DHT22;5809;53.262;10.408;2023-06-14T07:32:09;22.80;1.00
11505;DHT22;5809;53.262;10.408;2023-06-14T07:34:36;23.10;1.00
11505;DHT22;5809;53.262;10.408;2023-06-14T07:37:03;23.70;1.00
11505;DHT22;5809;53.262;10.408;2023-06-14T07:39:30;24.10;1.00
11505;DHT22;5809;53.262;10.408;2023-06-14T07:41:58;23.40;1.00
11505;DHT22;5809;53.262;10.408;2023-06-14T07:44:27;23.00;1.00
11505;DHT22;5809;53.262;10.408;2023-06-14T07:46:54;23.10;1.00
11505;DHT22;5809;53.262;10.408;2023-06-14T07:49:23;22.90;1.00
11505;DHT22;5809;53.262;10.408;2023-06-14T07:51:50;22.60;1.00
11505;DHT22;5809;53.262;10.408;2023-06-14T07:54:18;22.90;1.00
11505;DHT22;5809;53.262;10.408;2023-06-14T07:56:46;22.90;1.00
11505;DHT22;5809;53.262;10.408;2023-06-14T07:59:14;23.60;1.00
11505;DHT22;5809;53.262;10.408;2023-06-14T08:01:41;22.90;1.00
11505;DHT22;5809;53.262;10.408;2023-06-14T08:04:13;22.40;1.00
11505;DHT22;5809;53.262;10.408;2023-06-14T08:06:40;22.30;1.00
11505;DHT22;5809;53.262;10.408;2023-06-14T08:09:09;22.50;1.00
11505;DHT22;5809;53.262;10.408;2023-06-14T08:11:36;22.30;1.00
11505;DHT22;5809;53.262;10.408;2023-06-14T08:14:03;22.30;1.00
11505;DHT22;5809;53.262;10.408;2023-06-14T08:16:32;22.30;1.00
11505;DHT22;5809;53.262;10.408;2023-06-14T08:18:59;22.50;1.00
11505;DHT22;5809;53.262;10.408;2023-06-14T08:21:26;23.20;1.00
11505;DHT22;5809;53.262;10.408;2023-06-14T08:23:54;23.10;1.00
11505;DHT22;5809;53.262;10.408;2023-06-14T08:26:21;23.90;1.00
11505;DHT22;5809;53.262;10.408;2023-06-14T08:28:48;24.90;1.00
11505;DHT22;5809;53.262;10.408;2023-06-14T08:31:15;25.20;99.90
11505;DHT22;5809;53.262;10.408;2023-06-14T08:33:44;25.70;99.90
11505;DHT22;5809;53.262;10.408;2023-06-14T08:36:11;26.10;99.90
11505;DHT22;5809;53.262;10.408;2023-06-14T08:38:38;25.60;99.90
11505;DHT22;5809;53.262;10.408;2023-06-14T08:41:05;25.70;99.90
11505;DHT22;5809;53.262;10.408;2023-06-14T08:43:33;26.30;99.90
11505;DHT22;5809;53.262;10.408;2023-06-14T08:46:02;26.80;99.90
11505;DHT22;5809;53.262;10.408;2023-06-14T08:48:30;27.30;88.60
11505;DHT22;5809;53.262;10.408;2023-06-14T08:51:00;27.30;48.60
11505;DHT22;5809;53.262;10.408;2023-06-14T08:53:30;27.10;90.80
11505;DHT22;5809;53.262;10.408;2023-06-14T08:55:59;26.50;73.40
11505;DHT22;5809;53.262;10.408;2023-06-14T08:58:27;25.90;99.90
11505;DHT22;5809;53.262;10.408;2023-06-14T09:00:55;26.60;99.90
11505;DHT22;5809;53.262;10.408;2023-06-14T09:03:23;27.20;66.60
11505;DHT22;5809;53.262;10.408;2023-06-14T09:05:55;26.20;69.70
11505;DHT22;5809;53.262;10.408;2023-06-14T09:08:26;27.00;59.70
11505;DHT22;5809;53.262;10.408;2023-06-14T09:10:56;26.70;69.40
11505;DHT22;5809;53.262;10.408;2023-06-14T09:13:23;26.50;91.60
11505;DHT22;5809;53.262;10.408;2023-06-14T09:15:50;26.50;99.90
11505;DHT22;5809;53.262;10.408;2023-06-14T09:18:18;27.10;52.60
11505;DHT22;5809;53.262;10.408;2023-06-14T09:20:45;27.00;1.00
11505;DHT22;5809;53.262;10.408;2023-06-14T09:23:13;26.80;22.10
11505;DHT22;5809;53.262;10.408;2023-06-14T09:25:46;27.00;3.80
11505;DHT22;5809;53.262;10.408;2023-06-14T09:28:13;27.20;1.00
11505;DHT22;5809;53.262;10.408;2023-06-14T09:30:40;27.60;1.00
11505;DHT22;5809;53.262;10.408;2023-06-14T09:33:07;28.20;1.00
11505;DHT22;5809;53.262;10.408;2023-06-14T09:35:34;28.50;1.00
11505;DHT22;5809;53.262;10.408;2023-06-14T09:38:01;28.20;1.00
11505;DHT22;5809;53.262;10.408;2023-06-14T09:40:28;28.90;1.00
11505;DHT22;5809;53.262;10.408;2023-06-14T09:42:57;29.60;1.00
11505;DHT22;5809;53.262;10.408;2023-06-14T09:45:25;29.30;1.00
11505;DHT22;5809;53.262;10.408;2023-06-14T09:47:55;29.90;1.00
11505;DHT22;5809;53.262;10.408;2023-06-14T09:50:22;30.10;1.00
11505;DHT22;5809;53.262;10.408;2023-06-14T09:52:52;29.80;1.00
11505;DHT22;5809;53.262;10.408;2023-06-14T09:55:21;28.60;1.00
11505;DHT22;5809;53.262;10.408;2023-06-14T09:57:50;28.20;1.00
11505;DHT22;5809;53.262;10.408;2023-06-14T10:00:20;26.80;1.00
11505;DHT22;5809;53.262;10.408;2023-06-14T10:02:53;26.10;1.00
11505;DHT22;5809;53.262;10.408;2023-06-14T10:05:21;25.40;1.00
11505;DHT22;5809;53.262;10.408;2023-06-14T10:07:53;25.50;1.00
11505;DHT22;5809;53.262;10.408;2023-06-14T10:10:22;26.70;1.00
11505;DHT22;5809;53.262;10.408;2023-06-14T10:12:49;27.70;1.00
11505;DHT22;5809;53.262;10.408;2023-06-14T10:15:23;27.90;1.00
11505;DHT22;5809;53.262;10.408;2023-06-14T10:17:59;28.00;1.00
11505;DHT22;5809;53.262;10.408;2023-06-14T10:20:33;26.80;1.00
11505;DHT22;5809;53.262;10.408;2023-06-14T10:23:07;26.50;1.00
11505;DHT22;5809;53.262;10.408;2023-06-14T10:25:35;25.00;1.00
11505;DHT22;5809;53.262;10.408;2023-06-14T10:28:03;25.10;1.00
11505;DHT22;5809;53.262;10.408;2023-06-14T10:30:35;26.30;1.00
11505;DHT22;5809;53.262;10.408;2023-06-14T10:33:06;27.30;1.00
11505;DHT22;5809;53.262;10.408;2023-06-14T10:35:33;26.30;1.00
11505;DHT22;5809;53.262;10.408;2023-06-14T10:38:08;26.30;1.00
11505;DHT22;5809;53.262;10.408;2023-06-14T10:40:36;26.40;1.00
11505;DHT22;5809;53.262;10.408;2023-06-14T10:43:21;26.20;1.00
11505;DHT22;5809;53.262;10.408;2023-06-14T10:46:18;27.00;1.00
11505;DHT22;5809;53.262;10.408;2023-06-14T10:48:48;26.10;1.00
11505;DHT22;5809;53.262;10.408;2023-06-14T10:51:16;26.90;1.00
11505;DHT22;5809;53.262;10.408;2023-06-14T10:53:46;28.60;1.00
11505;DHT22;5809;53.262;10.408;2023-06-14T10:56:26;27.60;1.00
11505;DHT22;5809;53.262;10.408;2023-06-14T10:58:54;26.10;1.00
11505;DHT22;5809;53.262;10.408;2023-06-14T11:01:35;25.30;1.00
11505;DHT22;5809;53.262;10.408;2023-06-14T11:04:10;25.70;1.00
11505;DHT22;5809;53.262;10.408;2023-06-14T11:06:46;26.80;1.00
11505;DHT22;5809;53.262;10.408;2023-06-14T11:09:47;27.40;1.00
11505;DHT22;5809;53.262;10.408;2023-06-14T11:12:21;27.30;1.00
11505;DHT22;5809;53.262;10.408;2023-06-14T11:14:48;26.60;1.00
11505;DHT22;5809;53.262;10.408;2023-06-14T11:17:17;26.60;1.00
11505;DHT22;5809;53.262;10.408;2023-06-14T11:19:44;25.40;1.00
11505;DHT22;5809;53.262;10.408;2023-06-14T11:22:12;27.10;1.00
11505;DHT22;5809;53.262;10.408;2023-06-14T11:24:40;29.10;1.00
11505;DHT22;5809;53.262;10.408;2023-06-14T11:27:07;30.80;1.00
11505;DHT22;5809;53.262;10.408;2023-06-14T11:29:34;31.80;1.00
11505;DHT22;5809;53.262;10.408;2023-06-14T11:32:01;31.30;1.00
11505;DHT22;5809;53.262;10.408;2023-06-14T11:34:29;29.90;1.00
11505;DHT22;5809;53.262;10.408;2023-06-14T11:36:56;29.50;1.00
11505;DHT22;5809;53.262;10.408;2023-06-14T11:39:24;28.90;1.00
11505;DHT22;5809;53.262;10.408;2023-06-14T11:41:52;28.50;1.00
11505;DHT22;5809;53.262;10.408;2023-06-14T11:44:20;29.00;1.00
11505;DHT22;5809;53.262;10.408;2023-06-14T11:46:47;29.80;1.00
11505;DHT22;5809;53.262;10.408;2023-06-14T11:49:16;29.40;1.00
11505;DHT22;5809;53.262;10.408;2023-06-14T11:51:44;28.60;1.00
11505;DHT22;5809;53.262;10.408;2023-06-14T11:54:12;28.00;1.00
11505;DHT22;5809;53.262;10.408;2023-06-14T11:56:39;27.90;1.00
11505;DHT22;5809;53.262;10.408;2023-06-14T11:59:06;28.10;1.00
11505;DHT22;5809;53.262;10.408;2023-06-14T12:01:36;28.50;1.00
11505;DHT22;5809;53.262;10.408;2023-06-14T12:04:03;29.60;1.00
11505;DHT22;5809;53.262;10.408;2023-06-14T12:06:31;30.00;1.00
11505;DHT22;5809;53.262;10.408;2023-06-14T12:09:06;31.20;1.00
11505;DHT22;5809;53.262;10.408;2023-06-14T12:11:38;30.70;1.00
11505;DHT22;5809;53.262;10.408;2023-06-14T12:14:06;32.50;1.00
11505;DHT22;5809;53.262;10.408;2023-06-14T12:16:37;33.00;1.00
11505;DHT22;5809;53.262;10.408;2023-06-14T12:19:13;34.20;1.00
11505;DHT22;5809;53.262;10.408;2023-06-14T12:21:40;34.60;1.00
11505;DHT22;5809;53.262;10.408;2023-06-14T12:24:09;35.10;1.00
11505;DHT22;5809;53.262;10.408;2023-06-14T12:26:38;34.90;1.00
11505;DHT22;5809;53.262;10.408;2023-06-14T12:29:06;34.10;1.00
11505;DHT22;5809;53.262;10.408;2023-06-14T12:31:33;34.30;1.00
11505;DHT22;5809;53.262;10.408;2023-06-14T12:34:00;34.00;1.00
11505;DHT22;5809;53.262;10.408;2023-06-14T12:36:27;34.80;1.00
11505;DHT22;5809;53.262;10.408;2023-06-14T12:38:54;34.80;1.00
11505;DHT22;5809;53.262;10.408;2023-06-14T12:41:23;33.00;1.00
11505;DHT22;5809;53.262;10.408;2023-06-14T12:43:50;32.50;1.00
11505;DHT22;5809;53.262;10.408;2023-06-14T12:46:17;33.00;1.00
11505;DHT22;5809;53.262;10.408;2023-06-14T12:48:44;32.60;1.00
11505;DHT22;5809;53.262;10.408;2023-06-14T12:51:11;31.60;1.00
11505;DHT22;5809;53.262;10.408;2023-06-14T12:53:37;32.00;1.00
11505;DHT22;5809;53.262;10.408;2023-06-14T12:56:05;31.60;1.00
11505;DHT22;5809;53.262;10.408;2023-06-14T12:58:33;29.80;1.00
11505;DHT22;5809;53.262;10.408;2023-06-14T13:01:00;29.80;1.00
11505;DHT22;5809;53.262;10.408;2023-06-14T13:03:27;30.00;1.00
11505;DHT22;5809;53.262;10.408;2023-06-14T13:05:54;29.00;1.00
11505;DHT22;5809;53.262;10.408;2023-06-14T13:08:21;29.70;1.00
11505;DHT22;5809;53.262;10.408;2023-06-14T13:10:48;30.60;1.00
11505;DHT22;5809;53.262;10.408;2023-06-14T13:13:15;31.80;1.00
11505;DHT22;5809;53.262;10.408;2023-06-14T13:15:43;33.30;1.00
11505;DHT22;5809;53.262;10.408;2023-06-14T13:18:11;34.40;1.00
11505;DHT22;5809;53.262;10.408;2023-06-14T13:20:38;35.00;1.00
11505;DHT22;5809;53.262;10.408;2023-06-14T13:23:05;34.20;1.00
11505;DHT22;5809;53.262;10.408;2023-06-14T13:25:33;35.30;1.00
11505;DHT22;5809;53.262;10.408;2023-06-14T13:28:00;35.50;1.00
11505;DHT22;5809;53.262;10.408;2023-06-14T13:30:27;35.40;1.00
11505;DHT22;5809;53.262;10.408;2023-06-14T13:32:55;33.90;1.00
11505;DHT22;5809;53.262;10.408;2023-06-14T13:35:23;33.40;1.00
11505;DHT22;5809;53.262;10.408;2023-06-14T13:37:50;33.40;1.00
11505;DHT22;5809;53.262;10.408;2023-06-14T13:40:17;32.90;1.00
11505;DHT22;5809;53.262;10.408;2023-06-14T13:42:44;33.60;1.00
11505;DHT22;5809;53.262;10.408;2023-06-14T13:45:12;34.40;1.00
11505;DHT22;5809;53.262;10.408;2023-06-14T13:47:39;34.20;1.00
11505;DHT22;5809;53.262;10.408;2023-06-14T13:50:08;32.50;1.00
11505;DHT22;5809;53.262;10.408;2023-06-14T13:52:35;32.90;1.00
11505;DHT22;5809;53.262;10.408;2023-06-14T13:55:02;32.70;1.00
11505;DHT22;5809;53.262;10.408;2023-06-14T13:57:30;33.40;1.00
11505;DHT22;5809;53.262;10.408;2023-06-14T13:59:58;33.20;1.00
11505;DHT22;5809;53.262;10.408;2023-06-14T14:02:26;32.70;1.00
11505;DHT22;5809;53.262;10.408;2023-06-14T14:04:54;31.30;1.00
11505;DHT22;5809;53.262;10.408;2023-06-14T14:07:22;30.00;1.00
11505;DHT22;5809;53.262;10.408;2023-06-14T14:09:49;30.30;1.00
11505;DHT22;5809;53.262;10.408;2023-06-14T14:12:16;30.70;1.00
11505;DHT22;5809;53.262;10.408;2023-06-14T14:14:43;30.10;1.00
11505;DHT22;5809;53.262;10.408;2023-06-14T14:17:11;29.20;1.00
11505;DHT22;5809;53.262;10.408;2023-06-14T14:19:38;27.90;1.00
11505;DHT22;5809;53.262;10.408;2023-06-14T14:22:05;27.60;1.00
11505;DHT22;5809;53.262;10.408;2023-06-14T14:24:34;27.50;1.00
11505;DHT22;5809;53.262;10.408;2023-06-14T14:27:01;28.00;1.00
11505;DHT22;5809;53.262;10.408;2023-06-14T14:29:28;30.00;1.00
11505;DHT22;5809;53.262;10.408;2023-06-14T14:31:56;31.00;1.00
11505;DHT22;5809;53.262;10.408;2023-06-14T14:34:23;30.50;1.00
11505;DHT22;5809;53.262;10.408;2023-06-14T14:36:50;29.50;1.00
11505;DHT22;5809;53.262;10.408;2023-06-14T14:39:17;28.50;1.00
11505;DHT22;5809;53.262;10.408;2023-06-14T14:41:45;27.80;1.00
11505;DHT22;5809;53.262;10.408;2023-06-14T14:44:12;27.20;1.00
11505;DHT22;5809;53.262;10.408;2023-06-14T14:46:39;27.00;1.00
11505;DHT22;5809;53.262;10.408;2023-06-14T14:49:06;27.30;1.00
11505;DHT22;5809;53.262;10.408;2023-06-14T14:51:33;27.80;1.00
11505;DHT22;5809;53.262;10.408;2023-06-14T14:54:00;28.40;1.00
11505;DHT22;5809;53.262;10.408;2023-06-14T14:56:27;28.70;1.00
11505;DHT22;5809;53.262;10.408;2023-06-14T14:58:55;28.90;1.00
11505;DHT22;5809;53.262;10.408;2023-06-14T15:01:22;29.00;1.00
11505;DHT22;5809;53.262;10.408;2023-06-14T15:03:49;29.00;1.00
11505;DHT22;5809;53.262;10.408;2023-06-14T15:06:16;28.40;1.00
11505;DHT22;5809;53.262;10.408;2023-06-14T15:08:43;27.10;1.00
11505;DHT22;5809;53.262;10.408;2023-06-14T15:11:10;27.50;1.00
11505;DHT22;5809;53.262;10.408;2023-06-14T15:13:37;27.90;1.00
11505;DHT22;5809;53.262;10.408;2023-06-14T15:16:05;27.90;1.00
11505;DHT22;5809;53.262;10.408;2023-06-14T15:18:32;27.70;1.00
11505;DHT22;5809;53.262;10.408;2023-06-14T15:20:59;27.50;1.00
11505;DHT22;5809;53.262;10.408;2023-06-14T15:23:26;27.00;1.00
11505;DHT22;5809;53.262;10.408;2023-06-14T15:25:53;26.60;1.00
11505;DHT22;5809;53.262;10.408;2023-06-14T15:28:20;26.40;1.00
11505;DHT22;5809;53.262;10.408;2023-06-14T15:30:48;26.10;1.00
11505;DHT22;5809;53.262;10.408;2023-06-14T15:33:16;25.90;1.00
11505;DHT22;5809;53.262;10.408;2023-06-14T15:35:43;26.00;1.00
11505;DHT22;5809;53.262;10.408;2023-06-14T15:38:10;26.20;1.00
11505;DHT22;5809;53.262;10.408;2023-06-14T15:40:36;26.40;1.00
11505;DHT22;5809;53.262;10.408;2023-06-14T15:43:03;26.60;1.00
11505;DHT22;5809;53.262;10.408;2023-06-14T15:45:30;26.60;1.00
11505;DHT22;5809;53.262;10.408;2023-06-14T15:47:57;26.50;1.00
11505;DHT22;5809;53.262;10.408;2023-06-14T15:50:26;26.50;1.00